Time;durP1;ratioP1;P1;durP2;ratioP2;P2;SDS_P1;SDS_P2;PMS_P1;PMS_P2;Temp;Humidity;BMP_temperature;BMP_pressure;BME280_temperature;BME280_humidity;BME280_pressure;Samples;Min_cycle;Max_cycle;Signal;HPM_P1;HPM_P2
2021/06/07 00:01:07;;;;;;;;;;;;;;;23.73;59.99;101346.31;5038317;28;855;-72
2021/06/07 00:03:32;;;;;;;;;;;;;;;23.71;60.09;101343.84;5044254;28;3141;-72
2021/06/07 00:05:58;;;;;;;;;;;;;;;23.71;60.16;101349.34;5069836;28;850;-72
2021/06/07 00:08:23;;;;;;;;;;;;;;;23.71;60.28;101343.84;5069664;28;794;-72
2021/06/07 00:10:49;;;;;;;;;;;;;;;23.70;60.18;101347.72;5070068;28;908;-72
2021/06/07 00:13:14;;;;;;;;;;;;;;;23.70;60.25;101336.72;5070058;28;903;-72
2021/06/07 00:15:40;;;;;;;;;;;;;;;23.72;60.13;101336.41;5070537;28;905;-73
2021/06/07 00:18:06;;;;;;;;;;;;;;;23.72;60.43;101348.25;5070291;28;1895;-73
2021/06/07 00:20:33;;;;;;;;;;;;;;;23.71;60.48;101341.09;5069261;28;1299;-73
2021/06/07 00:22:59;;;;;;;;;;;;;;;23.65;60.31;101342.31;5070504;28;878;-73
2021/06/07 00:25:24;;;;;;;;;;;;;;;23.70;60.55;101336.72;5070553;28;838;-73
2021/06/07 00:27:49;;;;;;;;;;;;;;;23.70;60.43;101335.88;5070298;28;942;-73
2021/06/07 00:30:15;;;;;;;;;;;;;;;23.69;60.62;101337.84;5070524;28;861;-74
2021/06/07 00:32:40;;;;;;;;;;;;;;;23.76;60.31;101345.69;5070695;28;887;-74
2021/06/07 00:35:06;;;;;;;;;;;;;;;23.77;60.50;101346.53;5074725;28;877;-74
2021/06/07 00:37:31;;;;;;;;;;;;;;;23.75;60.45;101341.31;5073171;28;1898;-73
2021/06/07 00:39:57;;;;;;;;;;;;;;;23.76;60.51;101344.88;5073203;28;1174;-73
2021/06/07 00:42:22;;;;;;;;;;;;;;;23.76;60.25;101342.13;5074179;28;909;-73
2021/06/07 00:44:47;;;;;;;;;;;;;;;23.75;59.95;101346.00;5074419;28;869;-74
2021/06/07 00:47:14;;;;;;;;;;;;;;;23.73;59.93;101338.06;5074272;28;997;-74
2021/06/07 00:49:39;;;;;;;;;;;;;;;23.76;59.88;101347.63;5074314;28;956;-73
2021/06/07 00:52:05;;;;;;;;;;;;;;;23.76;60.01;101342.94;5074374;28;954;-74
2021/06/07 00:54:30;;;;;;;;;;;;;;;23.77;59.70;101346.53;5074196;28;888;-74
2021/06/07 00:56:56;;;;;;;;;;;;;;;23.75;59.68;101344.06;5067541;28;1943;-74
2021/06/07 00:59:21;;;;;;;;;;;;;;;23.78;59.75;101348.19;5053952;28;889;-73
2021/06/07 01:01:46;;;;;;;;;;;;;;;23.78;59.70;101340.72;5043003;28;898;-74
2021/06/07 01:04:12;;;;;;;;;;;;;;;23.76;59.83;101350.38;5033548;28;1236;-75
2021/06/07 01:06:37;;;;;;;;;;;;;;;23.74;59.72;101350.69;5034950;28;847;-75
2021/06/07 01:09:04;;;;;;;;;;;;;;;23.74;59.56;101339.66;5034415;28;846;-75
2021/06/07 01:11:31;;;;;;;;;;;;;;;23.76;59.48;101344.88;5036260;28;2032;-73
2021/06/07 01:13:56;;;;;;;;;;;;;;;23.76;59.58;101342.13;5042522;28;893;-72
2021/06/07 01:16:22;;;;;;;;;;;;;;;23.75;59.84;101346.00;5033643;28;1311;-74
2021/06/07 01:18:48;;;;;;;;;;;;;;;23.74;59.46;101336.94;5033886;28;1910;-74
2021/06/07 01:21:14;;;;;;;;;;;;;;;23.73;59.74;101343.56;5033828;28;814;-74
2021/06/07 01:23:41;;;;;;;;;;;;;;;23.75;59.55;101343.25;5033778;28;834;-74
2021/06/07 01:26:07;;;;;;;;;;;;;;;23.76;59.45;101342.94;5033279;28;1143;-75
2021/06/07 01:28:33;;;;;;;;;;;;;;;23.79;59.45;101347.88;5038310;28;889;-74
2021/06/07 01:30:59;;;;;;;;;;;;;;;23.78;59.45;101345.44;5053451;28;870;-73
2021/06/07 01:33:25;;;;;;;;;;;;;;;23.78;59.32;101346.25;5053543;28;945;-74
2021/06/07 01:35:52;;;;;;;;;;;;;;;23.77;59.21;101341.03;5053312;28;900;-74
2021/06/07 01:38:18;;;;;;;;;;;;;;;23.77;59.28;101341.03;5052027;28;1923;-74
2021/06/07 01:40:45;;;;;;;;;;;;;;;23.77;59.33;101346.53;5053102;28;929;-74
2021/06/07 01:43:11;;;;;;;;;;;;;;;23.78;59.33;101348.97;5053172;28;977;-75
2021/06/07 01:45:37;;;;;;;;;;;;;;;23.75;59.25;101344.06;5052496;28;966;-74
2021/06/07 01:48:05;;;;;;;;;;;;;;;23.73;59.52;101338.88;5052235;28;892;-74
2021/06/07 01:50:30;;;;;;;;;;;;;;;23.75;59.46;101335.81;5053425;28;907;-75
2021/06/07 01:52:56;;;;;;;;;;;;;;;23.75;59.28;101337.75;5053259;28;827;-74
2021/06/07 01:55:24;;;;;;;;;;;;;;;23.73;59.06;101341.63;5053058;28;823;-75
2021/06/07 01:57:50;;;;;;;;;;;;;;;23.75;59.19;101346.00;5053109;28;1927;-74
2021/06/07 02:00:20;;;;;;;;;;;;;;;23.75;59.12;101346.00;5053097;28;851;-74
2021/06/07 02:02:46;;;;;;;;;;;;;;;23.74;59.15;101345.19;5053401;28;855;-74
2021/06/07 02:05:12;;;;;;;;;;;;;;;23.77;59.10;101352.03;5053131;28;913;-75
2021/06/07 02:07:48;;;;;;;;;;;;;;;23.75;59.22;101344.06;5053883;28;887;-78
2021/06/07 02:10:14;;;;;;;;;;;;;;;23.76;59.17;101342.13;5054067;28;861;-76
2021/06/07 02:12:40;;;;;;;;;;;;;;;23.75;59.29;101338.56;5053640;28;922;-76
2021/06/07 02:15:09;;;;;;;;;;;;;;;23.72;59.26;101347.41;5053728;28;916;-76
2021/06/07 02:17:34;;;;;;;;;;;;;;;23.73;59.04;101349.88;5053276;28;1899;-76
2021/06/07 02:20:00;;;;;;;;;;;;;;;23.75;59.00;101346.00;5053679;28;811;-76
2021/06/07 02:22:25;;;;;;;;;;;;;;;23.73;59.17;101351.81;5053488;28;1036;-76
2021/06/07 02:24:50;;;;;;;;;;;;;;;23.72;59.00;101350.16;5053451;28;809;-76
2021/06/07 02:27:16;;;;;;;;;;;;;;;23.73;58.92;101349.88;5052942;28;1829;-78
2021/06/07 02:29:41;;;;;;;;;;;;;;;23.71;59.06;101343.84;5047087;28;782;-78
2021/06/07 02:32:07;;;;;;;;;;;;;;;23.71;59.27;101349.34;5037819;28;1564;-77
2021/06/07 02:34:32;;;;;;;;;;;;;;;23.72;59.24;101347.41;5034075;28;861;-77
2021/06/07 02:36:57;;;;;;;;;;;;;;;23.71;59.06;101349.34;5033095;28;1886;-72
2021/06/07 02:39:25;;;;;;;;;;;;;;;23.71;59.20;101346.59;5032537;28;1152;-72
2021/06/07 02:41:51;;;;;;;;;;;;;;;23.74;59.16;101350.69;5032326;28;850;-72
2021/06/07 02:44:22;;;;;;;;;;;;;;;23.76;58.96;101361.38;5032486;28;886;-72
2021/06/07 02:46:48;;;;;;;;;;;;;;;23.75;58.85;101360.56;5032356;28;892;-74
2021/06/07 02:49:13;;;;;;;;;;;;;;;23.74;59.05;101356.19;5032415;28;890;-74
2021/06/07 02:51:38;;;;;;;;;;;;;;;23.72;58.80;101359.25;5032174;28;1228;-74
2021/06/07 02:54:04;;;;;;;;;;;;;;;23.70;59.07;101361.50;5032207;28;888;-74
2021/06/07 02:56:30;;;;;;;;;;;;;;;23.71;58.94;101365.03;5031094;28;829;-74
2021/06/07 02:58:55;;;;;;;;;;;;;;;23.69;59.13;101361.78;5031732;28;1855;-74
2021/06/07 03:01:20;;;;;;;;;;;;;;;23.67;59.29;101367.56;5031934;28;971;-74
2021/06/07 03:03:45;;;;;;;;;;;;;;;23.68;58.94;101369.22;5032053;28;858;-74
2021/06/07 03:06:11;;;;;;;;;;;;;;;23.67;59.12;101364.81;5034212;28;1728;-73
2021/06/07 03:08:36;;;;;;;;;;;;;;;23.67;58.93;101364.81;5042223;28;896;-74
2021/06/07 03:11:07;;;;;;;;;;;;;;;23.67;58.90;101364.00;5051590;28;912;-74
2021/06/07 03:13:32;;;;;;;;;;;;;;;23.66;59.13;101357.72;5051763;28;882;-74
2021/06/07 03:15:59;;;;;;;;;;;;;;;23.71;58.82;101368.59;5051344;28;1681;-73
2021/06/07 03:18:24;;;;;;;;;;;;;;;23.69;59.02;101362.59;5051352;28;1906;-73
2021/06/07 03:20:50;;;;;;;;;;;;;;;23.69;58.82;101370.03;5050383;28;2110;-73
2021/06/07 03:23:17;;;;;;;;;;;;;;;23.71;58.88;101373.28;5035395;28;840;-73
2021/06/07 03:25:44;;;;;;;;;;;;;;;23.71;58.59;101378.81;5032528;28;1000;-74
2021/06/07 03:28:09;;;;;;;;;;;;;;;23.70;58.63;101379.91;5031525;28;894;-74
2021/06/07 03:30:35;;;;;;;;;;;;;;;23.68;58.85;101368.38;5032951;28;1753;-73
2021/06/07 03:33:01;;;;;;;;;;;;;;;23.74;58.76;101380.94;5045895;28;881;-74
2021/06/07 03:35:26;;;;;;;;;;;;;;;23.71;58.89;101379.59;5051014;28;865;-74
2021/06/07 03:37:52;;;;;;;;;;;;;;;23.70;58.64;101389.00;5051245;28;1916;-74
2021/06/07 03:40:19;;;;;;;;;;;;;;;23.69;58.63;101387.34;5048861;28;1659;-74
2021/06/07 03:42:45;;;;;;;;;;;;;;;23.71;58.62;101389.81;5047713;28;1194;-71
2021/06/07 03:45:11;;;;;;;;;;;;;;;23.70;58.52;101394.50;5051031;28;1239;-71
2021/06/07 03:47:36;;;;;;;;;;;;;;;23.73;58.25;101393.06;5047483;28;2056;-69
2021/06/07 03:50:03;;;;;;;;;;;;;;;23.76;56.32;101397.94;5038099;28;1942;-69
2021/06/07 03:52:28;;;;;;;;;;;;;;;23.43;56.21;101399.84;5038368;28;1377;-69
2021/06/07 03:54:53;;;;;;;;;;;;;;;23.55;58.49;101402.97;5050890;28;903;-69
2021/06/07 03:57:19;;;;;;;;;;;;;;;23.66;57.68;101398.97;5033680;28;1931;-69
2021/06/07 03:59:44;;;;;;;;;;;;;;;23.58;55.10;101412.53;5030835;28;894;-69
2021/06/07 04:02:10;;;;;;;;;;;;;;;23.33;54.99;101401.63;5033796;28;1593;-69
2021/06/07 04:04:36;;;;;;;;;;;;;;;23.25;55.32;101405.03;5043334;28;846;-69
2021/06/07 04:07:02;;;;;;;;;;;;;;;23.16;55.54;101398.59;5049905;28;807;-69
2021/06/07 04:09:27;;;;;;;;;;;;;;;23.22;54.50;101405.66;5049388;28;866;-69
2021/06/07 04:11:53;;;;;;;;;;;;;;;23.11;55.00;101404.16;5036868;28;862;-69
2021/06/07 04:14:18;;;;;;;;;;;;;;;23.21;54.85;101411.44;5029661;28;913;-69
2021/06/07 04:16:44;;;;;;;;;;;;;;;23.37;54.61;101410.09;5029808;28;1961;-69
2021/06/07 04:19:09;;;;;;;;;;;;;;;23.46;56.09;101413.00;5028275;28;1322;-71
2021/06/07 04:21:36;;;;;;;;;;;;;;;23.35;54.46;101411.53;5031300;28;1783;-70
2021/06/07 04:24:02;;;;;;;;;;;;;;;23.34;54.71;101407.94;5042307;28;1746;-70
2021/06/07 04:26:27;;;;;;;;;;;;;;;23.39;55.03;101409.81;5044634;28;1809;-70
2021/06/07 04:28:52;;;;;;;;;;;;;;;23.48;56.09;101410.75;5041193;28;908;-70
2021/06/07 04:31:18;;;;;;;;;;;;;;;23.46;53.93;101413.00;5049359;28;865;-70
2021/06/07 04:33:43;;;;;;;;;;;;;;;23.51;55.41;101413.75;5032013;28;887;-70
2021/06/07 04:36:08;;;;;;;;;;;;;;;23.57;55.82;101413.69;5028530;28;762;-70
2021/06/07 04:38:34;;;;;;;;;;;;;;;23.60;56.56;101413.88;5031121;28;1973;-71
2021/06/07 04:40:59;;;;;;;;;;;;;;;23.62;56.89;101419.09;5042674;28;881;-71
2021/06/07 04:43:24;;;;;;;;;;;;;;;23.64;57.41;101419.59;5048651;28;834;-71
2021/06/07 04:45:50;;;;;;;;;;;;;;;23.72;56.91;101417.00;5036916;28;798;-71
2021/06/07 04:48:16;;;;;;;;;;;;;;;23.70;57.54;101418.41;5033276;28;1683;-71
2021/06/07 04:50:41;;;;;;;;;;;;;;;23.67;57.85;101425.31;5048672;28;819;-71
2021/06/07 04:53:08;;;;;;;;;;;;;;;23.67;57.79;101416.28;5046112;28;843;-71
2021/06/07 04:55:41;;;;;;;;;;;;;;;23.68;57.79;101413.22;5028864;28;917;-70
2021/06/07 04:58:13;;;;;;;;;;;;;;;23.65;55.67;101422.06;5028048;28;1870;-71
2021/06/07 05:00:39;;;;;;;;;;;;;;;23.61;55.29;101423.78;5028676;28;827;-70
2021/06/07 05:03:04;;;;;;;;;;;;;;;23.43;54.88;101422.66;5028190;28;1103;-71
2021/06/07 05:05:30;;;;;;;;;;;;;;;23.29;55.12;101428.06;5038144;28;811;-70
2021/06/07 05:07:55;;;;;;;;;;;;;;;23.24;54.86;101427.31;5048234;28;847;-70
2021/06/07 05:10:21;;;;;;;;;;;;;;;23.12;54.82;101420.34;5048058;28;871;-75
2021/06/07 05:12:47;;;;;;;;;;;;;;;23.21;54.19;101423.25;5048260;28;818;-74
2021/06/07 05:15:14;;;;;;;;;;;;;;;22.99;54.66;101414.72;5046517;28;1674;-70
2021/06/07 05:17:39;;;;;;;;;;;;;;;22.95;54.44;101409.00;5036437;28;1907;-70
2021/06/07 05:20:06;;;;;;;;;;;;;;;22.88;54.47;101417.59;5034695;28;906;-70
2021/06/07 05:22:32;;;;;;;;;;;;;;;22.97;54.16;101417.75;5032211;28;854;-70
2021/06/07 05:24:57;;;;;;;;;;;;;;;23.10;54.33;101419.81;5033173;28;1503;-69
2021/06/07 05:27:22;;;;;;;;;;;;;;;23.46;55.84;101426.75;5034680;28;905;-66
2021/06/07 05:29:48;;;;;;;;;;;;;;;23.64;58.52;101431.44;5050614;28;882;-77
2021/06/07 05:32:13;;;;;;;;;;;;;;;23.81;59.63;101421.88;5050222;28;1175;-74
2021/06/07 05:34:38;;;;;;;;;;;;;;;23.78;58.64;101426.00;5051769;28;802;-69
2021/06/07 05:37:04;;;;;;;;;;;;;;;23.69;57.99;101427.78;5049056;28;1956;-68
2021/06/07 05:39:30;;;;;;;;;;;;;;;23.69;57.70;101436.03;5031809;28;802;-69
2021/06/07 05:41:55;;;;;;;;;;;;;;;23.58;57.14;101437.28;5045433;28;1447;-66
2021/06/07 05:44:20;;;;;;;;;;;;;;;23.57;57.20;101439.22;5069582;28;1172;-72
2021/06/07 05:46:47;;;;;;;;;;;;;;;23.63;59.73;101438.03;5065533;28;1656;-69
2021/06/07 05:49:12;;;;;;;;;;;;;;;23.60;56.56;101433.13;5050905;28;905;-67
2021/06/07 05:51:38;;;;;;;;;;;;;;;23.47;56.28;101426.44;5051479;28;909;-68
2021/06/07 05:54:03;;;;;;;;;;;;;;;23.65;58.98;101432.25;5051553;28;894;-68
2021/06/07 05:56:28;;;;;;;;;;;;;;;23.67;58.71;101433.56;5043811;28;1822;-68
2021/06/07 05:58:57;;;;;;;;;;;;;;;23.76;58.60;101424.66;5042114;28;1890;-68
2021/06/07 06:01:23;;;;;;;;;;;;;;;23.79;57.13;101422.16;5038358;28;1017;-68
2021/06/07 06:03:48;;;;;;;;;;;;;;;23.71;56.49;101415.38;5030951;28;1032;-68
2021/06/07 06:06:13;;;;;;;;;;;;;;;23.70;56.99;101423.91;5031786;28;773;-68
2021/06/07 06:08:39;;;;;;;;;;;;;;;23.77;57.63;101418.03;5029783;28;1306;-68
2021/06/07 06:11:04;;;;;;;;;;;;;;;23.85;58.10;101418.19;5041310;28;1293;-68
2021/06/07 06:13:29;;;;;;;;;;;;;;;23.88;57.71;101420.34;5051077;28;916;-68
2021/06/07 06:15:55;;;;;;;;;;;;;;;23.92;57.46;101428.81;5050093;28;1105;-68
2021/06/07 06:18:20;;;;;;;;;;;;;;;23.91;57.89;101422.50;5050772;28;1910;-68
2021/06/07 06:20:45;;;;;;;;;;;;;;;23.93;57.50;101417.50;5050986;28;827;-68
2021/06/07 06:23:11;;;;;;;;;;;;;;;23.97;57.62;101414.97;5050851;28;988;-73
2021/06/07 06:25:36;;;;;;;;;;;;;;;24.02;57.46;101414.88;5050679;28;1268;-69
2021/06/07 06:28:01;;;;;;;;;;;;;;;24.05;57.61;101419.00;5050831;28;830;-68
2021/06/07 06:30:28;;;;;;;;;;;;;;;23.97;56.44;101414.19;5050168;28;885;-68
2021/06/07 06:32:58;;;;;;;;;;;;;;;24.09;55.61;101422.78;5051445;28;845;-71
2021/06/07 06:35:23;;;;;;;;;;;;;;;24.18;56.16;101429.19;5051663;28;1544;-68
2021/06/07 06:37:49;;;;;;;;;;;;;;;24.13;56.68;101427.34;5046186;28;1965;-68
2021/06/07 06:40:18;;;;;;;;;;;;;;;24.08;56.84;101419.19;5039890;28;1232;-71
2021/06/07 06:42:43;;;;;;;;;;;;;;;24.24;56.52;101424.44;5052036;28;903;-68
2021/06/07 06:45:09;;;;;;;;;;;;;;;24.16;56.69;101425.13;5050943;28;810;-68
2021/06/07 06:47:34;;;;;;;;;;;;;;;24.12;56.77;101420.22;5051159;28;1010;-68
2021/06/07 06:50:00;;;;;;;;;;;;;;;24.15;56.08;101428.97;5051572;28;918;-68
2021/06/07 06:52:26;;;;;;;;;;;;;;;24.13;55.78;101432.06;5051320;28;826;-68
2021/06/07 06:54:51;;;;;;;;;;;;;;;24.09;55.62;101429.09;5050915;28;1287;-68
2021/06/07 06:57:16;;;;;;;;;;;;;;;24.07;55.74;101442.31;5051073;28;1931;-68
2021/06/07 06:59:42;;;;;;;;;;;;;;;24.09;55.24;101437.34;5050745;28;846;-68
2021/06/07 07:02:08;;;;;;;;;;;;;;;24.03;55.28;101438.53;5050980;28;955;-68
2021/06/07 07:04:33;;;;;;;;;;;;;;;24.10;54.77;101438.16;5050894;28;942;-68
2021/06/07 07:06:59;;;;;;;;;;;;;;;24.07;53.74;101438.78;5050861;28;861;-68
2021/06/07 07:09:24;;;;;;;;;;;;;;;24.03;54.36;101443.25;5050886;28;767;-68
2021/06/07 07:11:50;;;;;;;;;;;;;;;24.07;54.23;101442.31;5049386;28;1264;-68
2021/06/07 07:14:15;;;;;;;;;;;;;;;24.02;54.18;101449.84;5050759;28;818;-68
2021/06/07 07:16:40;;;;;;;;;;;;;;;24.00;54.15;101449.34;5050582;28;1100;-68
2021/06/07 07:19:06;;;;;;;;;;;;;;;23.98;53.96;101437.81;5050235;28;1910;-68
2021/06/07 07:21:31;;;;;;;;;;;;;;;24.03;53.54;101444.06;5050893;28;886;-68
2021/06/07 07:23:56;;;;;;;;;;;;;;;24.00;52.69;101441.88;5051135;28;763;-68
2021/06/07 07:26:22;;;;;;;;;;;;;;;24.02;52.99;101438.84;5048645;28;1254;-68
2021/06/07 07:28:47;;;;;;;;;;;;;;;24.02;52.67;101428.63;5047261;28;1731;-68
2021/06/07 07:31:12;;;;;;;;;;;;;;;24.05;52.47;101444.56;5037863;28;811;-68
2021/06/07 07:33:39;;;;;;;;;;;;;;;24.05;52.57;101452.00;5039812;28;1743;-68
2021/06/07 07:36:05;;;;;;;;;;;;;;;23.98;52.69;101454.31;5045794;28;1194;-68
2021/06/07 07:38:31;;;;;;;;;;;;;;;23.97;52.79;101447.19;5050283;28;1870;-68
2021/06/07 07:40:56;;;;;;;;;;;;;;;23.99;52.62;101454.03;5050070;28;1291;-68
2021/06/07 07:43:21;;;;;;;;;;;;;;;24.02;51.87;101453.41;5049281;28;814;-68
2021/06/07 07:45:46;;;;;;;;;;;;;;;24.11;51.26;101448.88;5050602;28;818;-70
2021/06/07 07:48:12;;;;;;;;;;;;;;;24.11;52.46;101453.56;5065845;28;1344;-72
2021/06/07 07:50:37;;;;;;;;;;;;;;;24.15;52.03;101448.25;5070935;28;855;-71
2021/06/07 07:53:03;;;;;;;;;;;;;;;24.24;51.34;101452.75;5070964;28;873;-72
2021/06/07 07:55:31;;;;;;;;;;;;;;;24.17;51.75;101457.84;5065318;28;1191;-72
2021/06/07 07:57:56;;;;;;;;;;;;;;;24.04;50.12;101464.94;5050342;28;1870;-72
2021/06/07 08:00:23;;;;;;;;;;;;;;;23.93;49.69;101452.47;5050036;28;905;-71
2021/06/07 08:02:49;;;;;;;;;;;;;;;23.88;48.81;101455.28;5050166;28;869;-72
2021/06/07 08:05:15;;;;;;;;;;;;;;;23.82;48.64;101462.00;5050269;28;830;-72
2021/06/07 08:07:40;;;;;;;;;;;;;;;23.86;48.74;101461.09;5049854;28;837;-72
2021/06/07 08:10:06;;;;;;;;;;;;;;;23.97;48.45;101463.72;5049737;28;1214;-71
2021/06/07 08:12:32;;;;;;;;;;;;;;;23.97;48.98;101467.25;5049548;28;906;-72
2021/06/07 08:14:57;;;;;;;;;;;;;;;23.99;48.49;101458.72;5049801;28;832;-71
2021/06/07 08:17:22;;;;;;;;;;;;;;;23.89;47.60;101473.44;5049620;28;2351;-71
2021/06/07 08:19:48;;;;;;;;;;;;;;;23.89;47.32;101473.44;5049622;28;873;-71
2021/06/07 08:22:13;;;;;;;;;;;;;;;23.85;47.80;101464.16;5049698;28;913;-72
2021/06/07 08:24:39;;;;;;;;;;;;;;;23.95;48.34;101469.50;5047941;28;1393;-70
2021/06/07 08:27:04;;;;;;;;;;;;;;;24.06;47.43;101470.94;5049266;28;1263;-71
2021/06/07 08:29:30;;;;;;;;;;;;;;;23.86;46.02;101471.28;5049404;28;881;-71
2021/06/07 08:31:56;;;;;;;;;;;;;;;23.66;45.29;101475.13;5049176;28;877;-71
2021/06/07 08:34:21;;;;;;;;;;;;;;;23.68;46.84;101481.16;5049620;28;862;-70
2021/06/07 08:36:47;;;;;;;;;;;;;;;23.70;45.89;101474.25;5049618;28;1203;-71
2021/06/07 08:39:12;;;;;;;;;;;;;;;23.69;47.13;101469.84;5047962;28;1882;-71
2021/06/07 08:41:37;;;;;;;;;;;;;;;23.82;47.33;101479.31;5049065;28;1219;-71
2021/06/07 08:44:03;;;;;;;;;;;;;;;23.83;48.10;101480.16;5049276;28;911;-71
2021/06/07 08:46:29;;;;;;;;;;;;;;;23.76;48.01;101469.47;5049385;28;960;-71
2021/06/07 08:48:54;;;;;;;;;;;;;;;23.80;46.43;101472.47;5049438;28;829;-71
2021/06/07 08:51:19;;;;;;;;;;;;;;;23.60;46.20;101468.88;5049491;28;993;-71
2021/06/07 08:53:47;;;;;;;;;;;;;;;23.50;45.77;101469.88;5049325;28;865;-71
2021/06/07 08:56:13;;;;;;;;;;;;;;;23.50;45.97;101463.53;5053199;28;1218;-70
2021/06/07 08:58:38;;;;;;;;;;;;;;;23.58;46.88;101468.34;5053357;28;1878;-70
2021/06/07 09:01:03;;;;;;;;;;;;;;;23.63;46.44;101464.72;5045916;28;1774;-71
2021/06/07 09:03:30;;;;;;;;;;;;;;;23.69;46.52;101469.84;5042124;28;1633;-71
2021/06/07 09:05:57;;;;;;;;;;;;;;;23.65;46.24;101468.81;5045070;28;1604;-71
2021/06/07 09:08:25;;;;;;;;;;;;;;;23.57;47.63;101457.69;5042852;28;824;-71
2021/06/07 09:10:51;;;;;;;;;;;;;;;23.62;47.08;101452.91;5041397;28;1234;-71
2021/06/07 09:13:18;;;;;;;;;;;;;;;23.65;47.24;101455.06;5052994;28;866;-71
2021/06/07 09:15:53;;;;;;;;;;;;;;;23.61;46.57;101456.78;5053041;28;960;-71
2021/06/07 09:18:31;;;;;;;;;;;;;;;23.59;47.19;101455.44;5046371;28;1971;-71
2021/06/07 09:21:00;;;;;;;;;;;;;;;23.60;46.96;101455.13;5041789;28;1562;-71
2021/06/07 09:23:37;;;;;;;;;;;;;;;23.53;46.82;101440.94;5043830;28;1606;-71
2021/06/07 09:26:02;;;;;;;;;;;;;;;23.45;47.07;101444.38;5044853;28;1211;-71
2021/06/07 09:28:27;;;;;;;;;;;;;;;23.48;47.48;101452.00;5046334;28;1580;-71
2021/06/07 09:30:55;;;;;;;;;;;;;;;23.46;47.53;101452.31;5042033;28;1592;-71
2021/06/07 09:33:23;;;;;;;;;;;;;;;23.44;47.59;101448.22;5040910;28;1578;-71
2021/06/07 09:36:06;;;;;;;;;;;;;;;23.43;48.08;101444.66;5043553;28;1579;-71
2021/06/07 09:38:32;;;;;;;;;;;;;;;23.45;48.30;101453.44;5043489;28;1882;-71
2021/06/07 09:41:01;;;;;;;;;;;;;;;23.41;48.38;101446.88;5041880;28;1592;-70
2021/06/07 09:43:27;;;;;;;;;;;;;;;23.44;48.63;101449.06;5047844;28;1608;-71
2021/06/07 09:45:56;;;;;;;;;;;;;;;23.45;48.51;101447.94;5043099;28;1460;-70
2021/06/07 09:48:27;;;;;;;;;;;;;;;23.44;48.90;101449.06;5038103;28;1605;-71
2021/06/07 09:50:54;;;;;;;;;;;;;;;23.46;49.04;101444.06;5034306;28;1763;-71
2021/06/07 09:53:57;;;;;;;;;;;;;;;23.42;48.87;101450.44;5037541;28;1580;-71
2021/06/07 09:56:23;;;;;;;;;;;;;;;23.27;49.13;101456.97;5037566;28;2031;-71
2021/06/07 09:58:49;;;;;;;;;;;;;;;23.31;49.54;101439.59;5044352;28;1957;-72
2021/06/07 10:01:18;;;;;;;;;;;;;;;23.42;49.05;101432.03;5031347;28;897;-71
2021/06/07 10:03:49;;;;;;;;;;;;;;;23.50;49.37;101433.28;5033304;28;1745;-71
2021/06/07 10:06:35;;;;;;;;;;;;;;;23.46;49.16;101429.50;5037911;28;922;-71
2021/06/07 10:09:07;;;;;;;;;;;;;;;23.38;49.40;101424.66;5044869;28;1286;-71
2021/06/07 10:11:37;;;;;;;;;;;;;;;23.25;48.93;101440.78;5050836;28;1226;-69
2021/06/07 10:14:04;;;;;;;;;;;;;;;23.36;48.83;101435.94;5069737;28;1686;-72
2021/06/07 10:16:29;;;;;;;;;;;;;;;23.38;48.91;101435.66;5055154;28;1632;-70
2021/06/07 10:18:56;;;;;;;;;;;;;;;23.37;48.98;101429.34;5038348;28;2031;-69
2021/06/07 10:21:21;;;;;;;;;;;;;;;23.29;49.33;101422.56;5041553;28;1508;-70
2021/06/07 10:23:47;;;;;;;;;;;;;;;23.34;49.04;101418.94;5042289;28;1287;-70
2021/06/07 10:26:12;;;;;;;;;;;;;;;23.35;49.49;101422.53;5050240;28;1220;-69
2021/06/07 10:28:39;;;;;;;;;;;;;;;23.32;49.86;101421.16;5046867;28;1660;-70
2021/06/07 10:31:17;;;;;;;;;;;;;;;23.34;50.14;101413.44;5038712;28;1595;-70
2021/06/07 10:33:43;;;;;;;;;;;;;;;23.32;50.44;101411.00;5044739;28;1450;-70
2021/06/07 10:36:21;;;;;;;;;;;;;;;23.35;50.56;101415.09;5042235;28;1338;-69
2021/06/07 10:38:46;;;;;;;;;;;;;;;23.36;50.58;101400.22;5042771;28;1941;-69
2021/06/07 10:41:17;;;;;;;;;;;;;;;23.39;50.99;101407.88;5052920;28;1230;-75
2021/06/07 10:43:44;;;;;;;;;;;;;;;23.42;51.07;101401.81;5049530;28;787;-74
2021/06/07 10:46:21;;;;;;;;;;;;;;;23.51;51.23;101399.19;5049895;28;1363;-74
2021/06/07 10:48:50;;;;;;;;;;;;;;;23.46;51.19;101393.75;5050682;28;795;-74
2021/06/07 10:51:16;;;;;;;;;;;;;;;23.47;51.34;101398.16;5045817;28;1421;-74
2021/06/07 10:53:41;;;;;;;;;;;;;;;23.39;51.40;101394.13;5038728;28;929;-73
2021/06/07 10:56:10;;;;;;;;;;;;;;;23.38;51.60;101397.16;5044746;28;1408;-74
2021/06/07 10:58:48;;;;;;;;;;;;;;;23.39;51.72;101394.13;5041581;28;1952;-74
2021/06/07 11:01:13;;;;;;;;;;;;;;;23.45;51.68;101394.88;5033906;28;874;-74
2021/06/07 11:03:52;;;;;;;;;;;;;;;23.48;51.24;101369.53;5039891;28;807;-74
2021/06/07 11:06:18;;;;;;;;;;;;;;;23.45;51.37;101373.69;5047036;28;1169;-75
2021/06/07 11:08:46;;;;;;;;;;;;;;;23.44;51.61;101363.81;5048766;28;1247;-73
2021/06/07 11:11:21;;;;;;;;;;;;;;;23.55;51.69;101374.66;5049164;28;1104;-73
2021/06/07 11:13:46;;;;;;;;;;;;;;;23.47;51.60;101390.72;5049432;28;1234;-73
2021/06/07 11:16:25;;;;;;;;;;;;;;;23.52;51.79;101376.06;5042727;28;1372;-75
2021/06/07 11:19:01;;;;;;;;;;;;;;;23.49;51.91;101382.97;5048325;28;1909;-75
2021/06/07 11:21:26;;;;;;;;;;;;;;;23.45;52.02;101368.19;5043914;28;1378;-76
2021/06/07 11:23:51;;;;;;;;;;;;;;;23.38;52.00;101375.19;5046992;28;1537;-75
2021/06/07 11:26:33;;;;;;;;;;;;;;;23.44;52.88;101382.22;5046863;28;1377;-67
2021/06/07 11:29:01;;;;;;;;;;;;;;;23.43;52.13;101372.38;5047612;28;1511;-67
2021/06/07 11:31:33;;;;;;;;;;;;;;;23.54;52.41;101371.06;5040533;28;1388;-73
2021/06/07 11:33:59;;;;;;;;;;;;;;;23.49;52.32;101380.22;5041196;28;1393;-71
2021/06/07 11:36:45;;;;;;;;;;;;;;;23.47;52.38;101376.97;5040317;28;1596;-69
2021/06/07 11:39:13;;;;;;;;;;;;;;;23.65;52.16;101378.06;5039347;28;1943;-71
2021/06/07 11:41:41;;;;;;;;;;;;;;;23.62;52.24;101383.34;5048367;28;1134;-71
2021/06/07 11:44:07;;;;;;;;;;;;;;;23.70;52.44;101368.91;5042752;28;1882;-72
2021/06/07 11:46:32;;;;;;;;;;;;;;;23.84;52.32;101363.47;5038979;28;1420;-72
2021/06/07 11:49:05;;;;;;;;;;;;;;;23.90;52.74;101363.09;5045036;28;1361;-73
2021/06/07 11:51:33;;;;;;;;;;;;;;;24.12;53.04;101362.41;5049783;28;845;-69
2021/06/07 11:53:59;;;;;;;;;;;;;;;23.89;52.03;101358.72;5049420;28;1464;-72
2021/06/07 11:56:24;;;;;;;;;;;;;;;23.76;52.77;101364.94;5046997;28;1678;-71
2021/06/07 11:58:51;;;;;;;;;;;;;;;23.79;52.94;101361.63;5034085;28;1945;-71
2021/06/07 12:01:16;;;;;;;;;;;;;;;23.81;52.38;101355.84;5039246;28;1223;-71
2021/06/07 12:03:45;;;;;;;;;;;;;;;23.91;53.30;101352.91;5049809;28;929;-70
2021/06/07 12:06:10;;;;;;;;;;;;;;;24.28;52.57;101348.38;5050076;28;889;-72
2021/06/07 12:08:36;;;;;;;;;;;;;;;24.34;53.03;101352.66;5041213;28;1569;-70
2021/06/07 12:11:02;;;;;;;;;;;;;;;24.28;53.58;101357.44;5043791;28;2015;-72
2021/06/07 12:13:31;;;;;;;;;;;;;;;24.22;54.01;101346.84;5049683;28;918;-71
2021/06/07 12:15:59;;;;;;;;;;;;;;;24.01;53.19;101344.47;5049634;28;1319;-72
2021/06/07 12:18:36;;;;;;;;;;;;;;;23.87;53.01;101340.88;5049478;28;1981;-71
2021/06/07 12:21:07;;;;;;;;;;;;;;;23.86;52.73;101344.72;5050086;28;882;-71
2021/06/07 12:23:37;;;;;;;;;;;;;;;23.91;53.67;101345.47;5047616;28;1267;-71
2021/06/07 12:29:24;;;;;;;;;;;;;;;23.82;53.30;101358.25;5004719;28;3201;-71
2021/06/07 12:32:02;;;;;;;;;;;;;;;23.98;53.07;101358.81;5055279;28;2813;-71
2021/06/07 12:34:27;;;;;;;;;;;;;;;23.95;53.42;101361.38;5064154;28;1530;-70
2021/06/07 12:36:53;;;;;;;;;;;;;;;23.89;53.41;101368.91;5058111;28;2855;-71
2021/06/07 12:39:18;;;;;;;;;;;;;;;23.86;53.42;101358.50;5057491;28;1931;-71
2021/06/07 12:41:45;;;;;;;;;;;;;;;23.91;53.28;101352.91;5049181;28;1180;-71
2021/06/07 12:44:10;;;;;;;;;;;;;;;24.02;54.92;101357.09;5065843;28;1620;-70
2021/06/07 12:46:49;;;;;;;;;;;;;;;24.32;54.69;101343.88;5055498;28;1519;-71
2021/06/07 12:49:23;;;;;;;;;;;;;;;24.42;54.71;101354.69;5063155;28;2731;-70
2021/06/07 12:51:56;;;;;;;;;;;;;;;24.48;54.31;101358.16;5052903;28;1260;-70